EGGD/BRS METAR and TAF weather

Enter ICAO airport designator
Station Type Date Time Source
EGGD METAR 2022/06/28 07:50 UTC NOAA

EGGD 280750Z 18014KT 9999 SCT018 SCT024 14/09 Q1016


Station Type Date Time Source
EGGD Decoded METAR 2022/06/28 07:50 UTC NOAA

Bristol / Lulsgate , United Kingdom (EGGD) 51-23N 002-43W
Jun 28, 2022 - 03:50 AM EDT / 2022.06.28 0750 UTC
Wind: from the S (180 degrees) at 16 MPH (14 KT):0
Visibility: greater than 7 mile(s):0
Sky conditions: partly cloudy
Temperature: 57 F (14 C)
Dew Point: 48 F (9 C)
Relative Humidity: 71%
Pressure (altimeter): 30.00 in. Hg (1016 hPa)
ob: EGGD 280750Z 18014KT 9999 SCT018 SCT024 14/09 Q1016
cycle: 8

Station Type Date Time Source
EGGD TAF 2022/06/28 07:20 UTC NOAA

TAF
AMD EGGD 280708Z 2807/2906 18011KT 9999 FEW012 SCT040
TEMPO 2807/2811 BKN010
BECMG 2808/2811 19016G26KT PROB30
TEMPO 2816/2818 8000 RA
BECMG 2817/2820 18010KT
TEMPO 2818/2902 7000 RA BKN010 PROB40
TEMPO 2821/2906 BKN007

Example: see airport list